This is the latest recevied weather packets stored in our database for station/object SP6DW-13. If no packets are shown the sender has not sent any weather packets the latest 10 day(s).
| Time | Temp. | Humidity | Pressure | Rain* | Wind** | Luminosity | Snow |
|---|---|---|---|---|---|---|---|
| 1777763744 | 12.22° C | 49% | 1019.4 hPa | 0 mm | - | - | - |
| 1777762516 | 11.67° C | 51% | 1019.6 hPa | 0 mm | - | - | - |
| 1777761356 | 12.78° C | 47% | 1019.6 hPa | 0 mm | - | - | - |
| 1777758326 | 13.33° C | 44% | 1019.8 hPa | 0 mm | - | - | - |
| 1777755328 | 13.89° C | 46% | 1020.2 hPa | 0 mm | - | - | - |
| 1777750816 | 17.22° C | 35% | 1020.5 hPa | 0 mm | - | - | - |
| 1777749615 | 18.33° C | 32% | 1020.5 hPa | 0 mm | - | - | - |
| 1777746635 | 20.56° C | 29% | 1020.4 hPa | 0 mm | - | - | - |
| 1777744836 | 22.78° C | 27% | 1020.3 hPa | 0 mm | - | - | - |
| 1777743025 | 25° C | 24% | 1020.3 hPa | 0 mm | - | - | - |
| 1777735816 | 26.67° C | 21% | 1021.3 hPa | 0 mm | - | - | - |
| 1777726217 | 25.56° C | 25% | 1023.4 hPa | 0 mm | - | - | - |
| 1777721416 | 23.33° C | 28% | 1024.3 hPa | 0 mm | - | - | - |
| 1777720823 | 23.33° C | 29% | 1024.5 hPa | 0 mm | - | - | - |
| 1777716037 | 21.11° C | 32% | 1025.3 hPa | 0 mm | - | - | - |
| 1777711869 | 20° C | 34% | 1026 hPa | 0 mm | - | - | - |
| 1777707656 | 15.56° C | 56% | 1026.6 hPa | 0 mm | - | - | - |
| 1777705816 | 12.78° C | 64% | 1026.8 hPa | 0 mm | - | - | - |
| 1777701616 | 8.89° C | 74% | 1026.9 hPa | 0 mm | - | - | - |
| 1777699828 | 7.22° C | 77% | 1027 hPa | 0 mm | - | - | - |
| 1777690816 | 5° C | 82% | 1027.1 hPa | 0 mm | - | - | - |
| 1777689626 | 5° C | 82% | 1027.2 hPa | 0 mm | - | - | - |
| 1777689016 | 5° C | 82% | 1027.3 hPa | 0 mm | - | - | - |
| 1777687236 | 5.56° C | 81% | 1027.2 hPa | 0 mm | - | - | - |
| 1777686016 | 6.11° C | 80% | 1027.4 hPa | 0 mm | - | - | - |
* Rain latest hour (hover to see other rain measurements)
** Current wind speed in m/s (hover to see current wind gust speed)